createdAt,value
2018-06-14T00:00:51.881Z,64.57
2018-06-14T00:03:20.773Z,64.96
2018-06-14T00:05:49.658Z,65.21
2018-06-14T00:08:18.530Z,65.07
2018-06-14T00:10:47.429Z,64.57
2018-06-14T00:13:16.289Z,64.68
2018-06-14T00:15:45.187Z,65.15
2018-06-14T00:18:14.102Z,65.35
2018-06-14T00:20:43.010Z,65.12
2018-06-14T00:23:11.938Z,65.20
2018-06-14T00:25:40.818Z,64.83
2018-06-14T00:28:09.704Z,64.96
2018-06-14T00:30:38.700Z,64.59
2018-06-14T00:33:07.576Z,64.47
2018-06-14T00:35:36.644Z,64.71
2018-06-14T00:38:06.810Z,65.18
2018-06-14T00:40:35.745Z,64.79
2018-06-14T00:43:04.613Z,64.66
2018-06-14T00:45:33.460Z,64.65
2018-06-14T00:48:05.492Z,65.37
2018-06-14T00:50:39.309Z,65.07
2018-06-14T00:53:09.314Z,65.36
2018-06-14T00:55:38.248Z,65.16
2018-06-14T00:58:08.571Z,65.01
2018-06-14T01:00:37.505Z,65.50
2018-06-14T01:03:06.372Z,64.90
2018-06-14T01:05:35.229Z,65.41
2018-06-14T01:08:04.135Z,65.55
2018-06-14T01:10:33.089Z,65.49
2018-06-14T01:13:02.006Z,65.39
2018-06-14T01:15:31.044Z,65.51
2018-06-14T01:17:59.924Z,65.56
2018-06-14T01:20:28.813Z,65.65
2018-06-14T01:22:57.723Z,65.85
2018-06-14T01:25:26.758Z,66.04
2018-06-14T01:27:55.626Z,65.66
2018-06-14T01:30:24.510Z,66.66
2018-06-14T01:32:53.273Z,66.14
2018-06-14T01:35:22.162Z,66.38
2018-06-14T01:38:29.431Z,66.00
2018-06-14T01:40:58.302Z,66.24
2018-06-14T01:43:27.115Z,66.55
2018-06-14T01:45:55.962Z,66.83
2018-06-14T01:48:24.766Z,66.57
2018-06-14T01:50:53.628Z,66.36
2018-06-14T01:53:22.468Z,66.49
2018-06-14T01:55:51.276Z,66.26
2018-06-14T01:58:20.108Z,66.97
2018-06-14T02:00:48.984Z,66.78
2018-06-14T02:03:17.825Z,66.93
2018-06-14T02:05:46.681Z,66.71
2018-06-14T02:08:15.524Z,67.13
2018-06-14T02:10:44.367Z,67.52
2018-06-14T02:13:13.171Z,67.27
2018-06-14T02:15:42.032Z,67.43
2018-06-14T02:18:10.863Z,67.50
2018-06-14T02:20:39.719Z,67.58
2018-06-14T02:23:08.564Z,67.21
2018-06-14T02:25:37.411Z,67.17
2018-06-14T02:28:06.261Z,67.09
2018-06-14T02:30:35.074Z,67.30
2018-06-14T02:33:03.941Z,67.36
2018-06-14T02:35:32.777Z,67.38
2018-06-14T02:38:01.621Z,67.37
2018-06-14T02:40:30.415Z,67.95
2018-06-14T02:42:59.241Z,67.78
2018-06-14T02:45:28.137Z,68.24
2018-06-14T02:47:57.001Z,68.53
2018-06-14T02:50:25.871Z,69.07
2018-06-14T02:52:54.777Z,69.20
2018-06-14T02:55:23.689Z,69.46
2018-06-14T02:57:52.582Z,69.47
2018-06-14T03:00:21.439Z,70.04
2018-06-14T03:02:50.272Z,70.14
2018-06-14T03:05:19.095Z,70.43
2018-06-14T03:07:47.965Z,70.66
2018-06-14T03:10:16.833Z,70.68
2018-06-14T03:12:45.634Z,70.68
2018-06-14T03:15:14.551Z,70.78
2018-06-14T03:17:43.405Z,70.81
2018-06-14T03:20:12.319Z,70.93
2018-06-14T03:22:41.260Z,71.23
2018-06-14T03:25:10.121Z,70.71
2018-06-14T03:27:38.958Z,70.83
2018-06-14T03:30:07.876Z,71.24
2018-06-14T03:32:36.772Z,70.85
2018-06-14T03:35:05.638Z,70.91
2018-06-14T03:37:34.517Z,70.70
2018-06-14T03:40:03.422Z,70.70
2018-06-14T03:42:32.352Z,70.45
2018-06-14T03:45:01.256Z,70.13
2018-06-14T03:47:30.965Z,69.78
2018-06-14T03:49:59.872Z,69.86
2018-06-14T03:52:28.778Z,70.40
2018-06-14T03:54:57.675Z,70.08
2018-06-14T03:57:26.586Z,69.76
2018-06-14T03:59:55.520Z,69.77
2018-06-14T04:02:24.418Z,69.90
2018-06-14T04:04:53.384Z,69.78
2018-06-14T04:07:22.321Z,69.76
2018-06-14T04:09:51.250Z,69.46
2018-06-14T04:12:20.170Z,69.40
2018-06-14T04:14:49.012Z,69.49
2018-06-14T04:17:17.865Z,69.75
2018-06-14T04:19:46.773Z,69.74
2018-06-14T04:22:16.572Z,70.02
2018-06-14T04:24:45.970Z,68.92
2018-06-14T04:27:15.082Z,68.57
2018-06-14T04:29:45.175Z,68.48
2018-06-14T04:32:15.720Z,68.34
2018-06-14T04:34:45.689Z,68.03
2018-06-14T04:37:16.659Z,66.69
2018-06-14T04:39:46.114Z,64.57
2018-06-14T04:42:15.053Z,63.88
2018-06-14T04:44:44.092Z,62.62
2018-06-14T04:47:12.919Z,60.18
2018-06-14T04:49:43.413Z,60.97
2018-06-14T04:52:12.834Z,62.00
2018-06-14T04:54:44.137Z,62.00
2018-06-14T04:57:12.991Z,62.77
2018-06-14T04:59:42.466Z,63.12
2018-06-14T05:02:13.541Z,62.06
2018-06-14T05:04:44.826Z,60.40
2018-06-14T05:07:14.264Z,58.21
2018-06-14T05:09:43.758Z,54.37
2018-06-14T05:12:13.144Z,51.21
2018-06-14T05:14:42.289Z,48.48
2018-06-14T05:17:13.099Z,49.19
2018-06-14T05:19:42.856Z,47.06
2018-06-14T05:22:12.018Z,51.12
2018-06-14T05:24:40.842Z,52.06
2018-06-14T05:27:09.797Z,51.50
2018-06-14T05:29:38.746Z,50.27
2018-06-14T05:32:07.727Z,49.61
2018-06-14T05:34:37.532Z,50.47
2018-06-14T05:37:08.169Z,47.67
2018-06-14T05:39:37.411Z,45.32
2018-06-14T05:42:07.661Z,47.10
2018-06-14T05:44:37.926Z,47.43
2018-06-14T05:47:07.035Z,46.75
2018-06-14T05:49:36.046Z,43.87
2018-06-14T05:52:05.007Z,41.44
2018-06-14T05:54:33.915Z,44.33
2018-06-14T05:57:02.830Z,45.79
2018-06-14T05:59:31.801Z,48.91
2018-06-14T06:02:00.637Z,50.97
2018-06-14T06:04:29.542Z,48.54
2018-06-14T06:06:58.409Z,49.08
2018-06-14T06:09:27.303Z,48.24
2018-06-14T06:11:56.192Z,48.11
2018-06-14T06:14:25.029Z,47.73
2018-06-14T06:16:53.896Z,52.58
2018-06-14T06:19:22.788Z,53.85
2018-06-14T06:21:51.689Z,55.01
2018-06-14T06:24:20.510Z,54.82
2018-06-14T06:26:49.376Z,53.61
2018-06-14T06:29:18.226Z,51.42
2018-06-14T06:31:47.193Z,45.20
2018-06-14T06:34:16.056Z,42.48
2018-06-14T06:36:45.638Z,40.62
2018-06-14T06:39:14.568Z,40.09
2018-06-14T06:41:43.434Z,42.14
2018-06-14T06:44:12.320Z,41.14
2018-06-14T06:46:41.131Z,40.13
2018-06-14T06:49:10.044Z,40.28
2018-06-14T06:51:38.867Z,37.30
2018-06-14T06:54:07.786Z,38.33
2018-06-14T06:56:36.692Z,38.92
2018-06-14T06:59:05.607Z,37.57
2018-06-14T07:01:34.500Z,36.21
2018-06-14T07:04:03.332Z,36.35
2018-06-14T07:06:32.252Z,41.25
2018-06-14T07:09:01.077Z,38.14
2018-06-14T07:11:29.997Z,39.62
2018-06-14T07:13:58.798Z,39.33
2018-06-14T07:16:27.708Z,37.64
2018-06-14T07:18:56.757Z,41.03
2018-06-14T07:21:25.626Z,41.76
2018-06-14T07:23:54.565Z,41.70
2018-06-14T07:26:23.456Z,38.26
2018-06-14T07:28:52.391Z,37.16
2018-06-14T07:31:21.288Z,38.80
2018-06-14T07:33:50.199Z,38.45
2018-06-14T07:36:19.037Z,40.64
2018-06-14T07:38:47.936Z,41.38
2018-06-14T07:41:16.837Z,43.55
2018-06-14T07:43:45.770Z,42.90
2018-06-14T07:46:14.684Z,42.78
2018-06-14T07:48:43.573Z,41.09
2018-06-14T07:51:12.487Z,36.65
2018-06-14T07:53:41.360Z,36.68
2018-06-14T07:56:10.392Z,36.55
2018-06-14T07:58:39.293Z,39.38
2018-06-14T08:01:08.213Z,37.69
2018-06-14T08:03:37.122Z,37.71
2018-06-14T08:06:06.062Z,37.27
2018-06-14T08:08:34.937Z,39.40
2018-06-14T08:11:03.832Z,37.95
2018-06-14T08:13:32.711Z,38.88
2018-06-14T08:16:01.643Z,38.45
2018-06-14T08:18:30.521Z,36.61
2018-06-14T08:20:59.572Z,38.27
2018-06-14T08:23:28.455Z,39.09
2018-06-14T08:25:57.336Z,40.94
2018-06-14T08:28:26.211Z,40.45
2018-06-14T08:30:55.114Z,39.24
2018-06-14T08:33:24.005Z,38.70
2018-06-14T08:35:52.868Z,38.78
2018-06-14T08:38:21.742Z,36.16
2018-06-14T08:40:50.666Z,37.89
2018-06-14T08:43:19.569Z,36.98
2018-06-14T08:45:48.460Z,38.24
2018-06-14T08:48:17.386Z,40.13
2018-06-14T08:50:46.318Z,41.66
2018-06-14T08:53:15.227Z,40.85
2018-06-14T08:55:44.779Z,41.48
2018-06-14T08:58:13.949Z,42.02
2018-06-14T09:00:42.933Z,43.75
2018-06-14T09:03:11.916Z,41.36
2018-06-14T09:05:40.849Z,43.01
2018-06-14T09:27:51.125Z,41.12
2018-06-14T09:30:20.029Z,41.31
2018-06-14T09:32:48.910Z,38.68
2018-06-14T09:35:17.827Z,38.12
2018-06-14T09:37:46.729Z,39.79
2018-06-14T09:40:15.640Z,40.39
2018-06-14T09:42:44.527Z,41.32
2018-06-14T09:45:13.399Z,40.21
2018-06-14T09:47:42.246Z,39.56
2018-06-14T09:50:11.186Z,40.10
2018-06-14T09:52:40.131Z,40.80
2018-06-14T09:55:09.586Z,40.36
2018-06-14T09:57:38.663Z,40.26
2018-06-14T10:00:07.674Z,40.58
2018-06-14T10:02:36.598Z,40.18
2018-06-14T10:05:05.595Z,40.22
2018-06-14T10:07:34.497Z,40.05
2018-06-14T10:10:03.413Z,38.44
2018-06-14T10:12:35.055Z,38.88
2018-06-14T10:15:04.860Z,37.79
2018-06-14T10:17:33.804Z,41.26
2018-06-14T10:20:02.729Z,41.42
2018-06-14T10:22:31.639Z,41.11
2018-06-14T10:25:00.579Z,39.66
2018-06-14T10:27:29.441Z,39.79
2018-06-14T10:29:58.264Z,41.44
2018-06-14T10:32:27.194Z,41.79
2018-06-14T10:34:56.085Z,43.22
2018-06-14T10:37:25.052Z,41.18
2018-06-14T10:39:53.927Z,41.36
2018-06-14T10:42:22.826Z,41.75
2018-06-14T10:44:51.719Z,42.15
2018-06-14T10:47:20.581Z,41.60
2018-06-14T10:49:49.473Z,39.32
2018-06-14T10:52:18.346Z,39.67
2018-06-14T10:54:47.219Z,41.01
2018-06-14T10:57:16.197Z,41.19
2018-06-14T10:59:45.243Z,41.33
2018-06-14T11:02:14.186Z,40.53
2018-06-14T11:04:43.150Z,40.03
2018-06-14T11:07:12.018Z,39.71
2018-06-14T11:09:40.908Z,39.51
2018-06-14T11:12:09.878Z,38.52
2018-06-14T11:14:38.769Z,40.36
2018-06-14T11:17:07.634Z,40.98
2018-06-14T11:19:36.504Z,41.33
2018-06-14T11:22:05.528Z,41.09
2018-06-14T11:24:34.431Z,41.91
2018-06-14T11:27:03.904Z,40.60
2018-06-14T11:29:32.801Z,39.89
2018-06-14T11:32:01.689Z,40.18
2018-06-14T11:34:30.580Z,41.17
2018-06-14T11:36:59.582Z,41.25
2018-06-14T11:39:28.433Z,39.48
2018-06-14T11:41:57.304Z,37.98
2018-06-14T11:44:26.217Z,37.82
2018-06-14T11:46:55.099Z,38.49
2018-06-14T11:49:23.981Z,38.75
2018-06-14T11:51:52.882Z,37.09
2018-06-14T11:54:21.769Z,35.37
2018-06-14T11:56:50.660Z,37.97
2018-06-14T11:59:28.481Z,38.83
2018-06-14T12:01:57.397Z,38.16
2018-06-14T12:04:26.286Z,38.74
2018-06-14T12:06:55.120Z,37.91
2018-06-14T12:09:23.975Z,37.91
2018-06-14T12:11:52.857Z,37.61
2018-06-14T12:14:21.808Z,36.21
2018-06-14T12:16:50.677Z,36.03
2018-06-14T12:19:19.608Z,36.37
2018-06-14T12:21:49.787Z,37.84
2018-06-14T12:24:18.742Z,37.22
2018-06-14T12:26:47.612Z,39.10
2018-06-14T12:29:16.489Z,37.71
2018-06-14T12:31:45.397Z,35.73
2018-06-14T12:34:14.304Z,37.34
2018-06-14T12:36:43.177Z,35.93
2018-06-14T12:39:12.047Z,36.06
2018-06-14T12:41:41.002Z,35.86
2018-06-14T12:44:09.973Z,38.07
2018-06-14T12:46:38.884Z,37.74
2018-06-14T12:49:07.890Z,37.94
2018-06-14T12:51:36.800Z,38.67
2018-06-14T12:54:06.534Z,37.74
2018-06-14T12:56:35.642Z,37.68
2018-06-14T12:59:04.510Z,36.73
2018-06-14T13:01:33.423Z,36.65
2018-06-14T13:04:02.409Z,35.87
2018-06-14T13:06:31.295Z,36.92
2018-06-14T13:09:00.391Z,37.31
2018-06-14T13:11:29.327Z,37.41
2018-06-14T13:13:58.203Z,37.21
2018-06-14T13:16:27.072Z,37.62
2018-06-14T13:18:55.978Z,37.25
2018-06-14T13:21:24.850Z,36.26
2018-06-14T13:23:53.779Z,35.89
2018-06-14T13:26:22.729Z,36.73
2018-06-14T13:28:51.666Z,35.95
2018-06-14T13:31:20.564Z,35.83
2018-06-14T13:33:49.464Z,35.75
2018-06-14T13:36:18.342Z,33.31
2018-06-14T13:38:47.225Z,33.75
2018-06-14T13:41:16.070Z,33.91
2018-06-14T13:43:45.014Z,32.99
2018-06-14T13:46:13.917Z,34.35
2018-06-14T13:48:42.877Z,32.24
2018-06-14T13:51:11.806Z,33.50
2018-06-14T13:53:40.684Z,34.04
2018-06-14T13:56:09.556Z,34.51
2018-06-14T13:58:38.601Z,35.13
2018-06-14T14:01:07.549Z,35.30
2018-06-14T14:03:36.451Z,34.48
2018-06-14T14:06:05.395Z,35.56
2018-06-14T14:08:34.312Z,35.09
2018-06-14T14:11:03.205Z,34.61
2018-06-14T14:13:32.118Z,34.69
2018-06-14T14:16:00.980Z,34.09
2018-06-14T14:18:30.057Z,34.81
2018-06-14T14:20:58.963Z,35.04
2018-06-14T14:23:27.845Z,35.93
2018-06-14T14:25:56.738Z,35.04
2018-06-14T14:28:26.689Z,34.94
2018-06-14T14:30:55.685Z,34.77
2018-06-14T14:33:24.632Z,35.51
2018-06-14T14:35:53.509Z,35.06
2018-06-14T14:38:22.449Z,34.29
2018-06-14T14:40:51.309Z,35.26
2018-06-14T14:43:20.257Z,36.17
2018-06-14T14:45:49.126Z,36.01
2018-06-14T14:48:18.574Z,35.86
2018-06-14T14:50:47.483Z,35.76
2018-06-14T14:53:16.491Z,35.82
2018-06-14T14:55:45.320Z,37.16
2018-06-14T14:58:15.624Z,36.46
2018-06-14T15:00:44.588Z,36.11
2018-06-14T15:03:13.545Z,35.74
2018-06-14T15:05:42.473Z,35.99
2018-06-14T15:08:12.049Z,36.41
2018-06-14T15:10:40.998Z,35.98
2018-06-14T15:13:09.849Z,35.60
2018-06-14T15:15:38.745Z,34.21
2018-06-14T15:18:07.679Z,35.53
2018-06-14T15:20:36.657Z,36.49
2018-06-14T15:23:05.609Z,36.05
2018-06-14T15:25:34.584Z,35.67
2018-06-14T15:28:03.599Z,35.67
2018-06-14T15:30:32.549Z,36.09
2018-06-14T15:33:01.436Z,35.99
2018-06-14T15:35:30.319Z,35.62
2018-06-14T15:37:59.222Z,36.70
2018-06-14T15:40:28.156Z,36.71
2018-06-14T15:42:57.074Z,36.50
2018-06-14T15:45:25.970Z,35.71
2018-06-14T15:47:54.877Z,35.56
2018-06-14T15:50:23.850Z,36.56
2018-06-14T15:52:52.796Z,36.54
2018-06-14T15:55:32.862Z,35.63
2018-06-14T15:58:01.831Z,34.71
2018-06-14T16:00:30.714Z,35.34
2018-06-14T16:02:59.686Z,35.69
2018-06-14T16:05:28.604Z,34.98
2018-06-14T16:08:19.036Z,35.81
2018-06-14T16:10:47.947Z,35.30
2018-06-14T16:13:16.861Z,34.81
2018-06-14T16:15:45.713Z,35.67
2018-06-14T16:18:16.365Z,35.53
2018-06-14T16:20:46.081Z,35.91
2018-06-14T16:23:15.773Z,36.12
2018-06-14T16:25:45.051Z,36.17
2018-06-14T16:28:13.921Z,35.40
2018-06-14T16:30:42.793Z,35.94
2018-06-14T16:33:11.700Z,36.81
2018-06-14T16:35:40.619Z,35.62
2018-06-14T16:38:10.564Z,36.32
2018-06-14T16:40:39.459Z,35.89
2018-06-14T16:43:08.309Z,36.12
2018-06-14T16:45:37.221Z,35.60
2018-06-14T16:48:06.123Z,36.27
2018-06-14T16:50:34.954Z,37.35
2018-06-14T16:53:03.904Z,37.25
2018-06-14T16:55:32.826Z,36.25
2018-06-14T16:58:02.085Z,36.46
2018-06-14T17:00:31.210Z,37.07
2018-06-14T17:03:00.182Z,38.39
2018-06-14T17:05:29.035Z,38.56
2018-06-14T17:07:57.908Z,39.42
2018-06-14T17:10:26.796Z,43.12
2018-06-14T17:12:55.741Z,44.58
2018-06-14T17:15:24.672Z,48.83
2018-06-14T17:17:53.516Z,54.30
2018-06-14T17:20:24.600Z,59.75
2018-06-14T17:22:53.525Z,64.86
2018-06-14T17:25:23.021Z,65.94
2018-06-14T17:27:51.988Z,70.62
2018-06-14T17:30:20.951Z,71.84
2018-06-14T17:32:49.878Z,73.87
2018-06-14T17:35:21.102Z,75.19
2018-06-14T17:37:50.060Z,74.19
2018-06-14T17:40:18.979Z,76.50
2018-06-14T17:42:47.954Z,75.88
2018-06-14T17:45:17.860Z,76.78
2018-06-14T17:47:46.758Z,77.08
2018-06-14T17:50:15.746Z,76.77
2018-06-14T17:52:44.658Z,76.57
2018-06-14T17:55:13.644Z,77.07
2018-06-14T17:57:42.781Z,76.49
2018-06-14T18:00:11.807Z,76.72
2018-06-14T18:02:40.748Z,77.83
2018-06-14T18:05:10.134Z,78.85
2018-06-14T18:07:39.535Z,78.89
2018-06-14T18:10:07.737Z,78.99
2018-06-14T18:12:36.804Z,79.13
2018-06-14T18:15:05.864Z,78.75
2018-06-14T18:17:34.824Z,78.59
2018-06-14T18:20:04.614Z,80.54
2018-06-14T18:22:33.962Z,79.92
2018-06-14T18:25:03.216Z,79.51
2018-06-14T18:27:32.129Z,79.48
2018-06-14T18:30:01.084Z,79.79
2018-06-14T18:32:29.947Z,80.64
2018-06-14T18:34:58.792Z,80.01
2018-06-14T18:37:27.691Z,81.12
2018-06-14T18:39:56.581Z,80.96
2018-06-14T18:42:25.398Z,81.65
2018-06-14T18:44:54.221Z,81.48
2018-06-14T18:47:23.037Z,81.72
2018-06-14T18:49:51.934Z,82.40
2018-06-14T18:52:21.587Z,80.58
2018-06-14T18:54:50.412Z,81.09
2018-06-14T18:57:24.771Z,81.53
2018-06-14T18:59:53.808Z,80.71
2018-06-14T19:02:22.761Z,80.10
2018-06-14T19:04:52.015Z,80.93
2018-06-14T19:07:21.010Z,81.31
2018-06-14T19:09:52.392Z,80.72
2018-06-14T19:12:21.245Z,81.47
2018-06-14T19:14:50.109Z,81.24
2018-06-14T19:17:19.468Z,81.58
2018-06-14T19:19:48.436Z,81.75
2018-06-14T19:22:17.335Z,82.21
2018-06-14T19:24:46.592Z,81.84
2018-06-14T19:27:15.451Z,82.36
2018-06-14T19:29:44.441Z,81.07
2018-06-14T19:32:15.541Z,81.38
2018-06-14T19:34:44.418Z,81.28
2018-06-14T19:37:13.395Z,82.27
2018-06-14T19:39:42.286Z,82.50
2018-06-14T19:42:11.151Z,81.68
2018-06-14T19:44:40.044Z,81.77
2018-06-14T19:47:09.530Z,81.33
2018-06-14T19:49:38.483Z,81.05
2018-06-14T19:52:07.363Z,81.57
2018-06-14T19:54:36.396Z,82.05
2018-06-14T19:57:05.300Z,81.58
2018-06-14T19:59:34.265Z,81.77
2018-06-14T20:02:03.164Z,81.22
2018-06-14T20:04:31.982Z,81.44
2018-06-14T20:07:00.888Z,81.39
2018-06-14T20:09:29.792Z,81.44
2018-06-14T20:11:58.723Z,81.07
2018-06-14T20:14:27.727Z,81.22
2018-06-14T20:16:56.724Z,80.37
2018-06-14T20:19:25.751Z,80.73
2018-06-14T20:21:54.647Z,81.57
2018-06-14T20:24:23.568Z,80.93
2018-06-14T20:26:52.462Z,81.48
2018-06-14T20:29:21.354Z,80.47
2018-06-14T20:31:50.305Z,80.77
2018-06-14T20:34:19.236Z,81.57
2018-06-14T20:36:48.115Z,80.80
2018-06-14T20:39:17.014Z,80.89
2018-06-14T20:41:46.005Z,80.68
2018-06-14T20:44:14.875Z,80.92
2018-06-14T20:46:43.756Z,80.69
2018-06-14T20:49:12.640Z,81.21
2018-06-14T20:51:41.591Z,81.11
2018-06-14T20:54:10.456Z,80.57
2018-06-14T20:56:39.323Z,81.45
2018-06-14T20:59:08.260Z,81.42
2018-06-14T21:01:37.188Z,80.74
2018-06-14T21:04:06.116Z,80.37
2018-06-14T21:06:35.045Z,80.89
2018-06-14T21:09:04.897Z,79.85
2018-06-14T21:11:33.780Z,80.92
2018-06-14T21:14:02.696Z,80.32
2018-06-14T21:16:31.713Z,80.38
2018-06-14T21:19:00.654Z,80.97
2018-06-14T21:21:29.597Z,80.55
2018-06-14T21:23:58.588Z,81.05
2018-06-14T21:26:27.541Z,80.95
2018-06-14T21:28:56.497Z,79.91
2018-06-14T21:31:25.367Z,80.42
2018-06-14T21:33:54.438Z,80.49
2018-06-14T21:36:23.277Z,81.07
2018-06-14T21:38:52.164Z,80.09
2018-06-14T21:41:21.023Z,80.46
2018-06-14T21:43:49.813Z,80.79
2018-06-14T21:46:18.729Z,80.74
2018-06-14T21:48:47.565Z,80.49
2018-06-14T21:51:16.466Z,80.03
2018-06-14T21:53:45.342Z,80.11
2018-06-14T21:56:14.228Z,79.94
2018-06-14T21:58:43.290Z,79.33
2018-06-14T22:01:12.795Z,80.20
2018-06-14T22:03:47.054Z,79.89
2018-06-14T22:06:15.889Z,80.08
2018-06-14T22:08:44.849Z,79.58
2018-06-14T22:11:14.168Z,79.50
2018-06-14T22:13:43.111Z,79.32
2018-06-14T22:16:12.152Z,79.71
2018-06-14T22:18:41.150Z,79.45
2018-06-14T22:21:11.341Z,79.85
2018-06-14T22:23:42.236Z,79.43
2018-06-14T22:26:12.957Z,79.42
2018-06-14T22:28:42.601Z,79.44
2018-06-14T22:31:12.679Z,80.53
2018-06-14T22:33:52.690Z,79.51
2018-06-14T22:36:21.568Z,80.39
2018-06-14T22:38:50.918Z,79.99
2018-06-14T22:41:21.332Z,80.37
2018-06-14T22:43:50.313Z,79.66
2018-06-14T22:46:19.194Z,79.96
2018-06-14T22:48:48.073Z,79.81
2018-06-14T22:51:19.713Z,80.20
2018-06-14T22:53:48.681Z,80.57
2018-06-14T22:56:17.516Z,79.79
2018-06-14T22:58:49.289Z,79.97
2018-06-14T23:01:35.837Z,80.70
2018-06-14T23:04:05.365Z,80.28
2018-06-14T23:06:34.265Z,80.12
2018-06-14T23:11:19.357Z,80.29
2018-06-14T23:13:48.213Z,80.55
2018-06-14T23:16:17.115Z,80.22
2018-06-14T23:18:46.809Z,80.69
2018-06-14T23:21:17.383Z,80.99
2018-06-14T23:23:46.348Z,80.36
2018-06-14T23:26:15.480Z,81.06
2018-06-14T23:28:44.420Z,80.35
2018-06-14T23:31:13.285Z,80.75
2018-06-14T23:33:42.124Z,80.62
2018-06-14T23:36:11.010Z,80.93
2018-06-14T23:38:39.837Z,80.50
2018-06-14T23:41:08.682Z,80.67
2018-06-14T23:43:37.634Z,80.65
2018-06-14T23:46:06.507Z,81.05
2018-06-14T23:48:35.414Z,81.23
2018-06-14T23:51:04.267Z,80.83
2018-06-14T23:53:33.140Z,80.71
2018-06-14T23:56:02.049Z,80.67
2018-06-14T23:58:30.938Z,80.80
